UAE77Q OMDB-OOMS
Flight info
| Callsign | UAE77Q |
|---|---|
| Flight time | 0h 41m |
| Altitude | 25000 |
| Route | ANVIX L223 TARDI DCT MUSUK T511 MCT |
| Aircraft | A359/H-SDE2E3GHIJ3J4J5LM1ORWXY/LB1D1 |
Departure
| Time | 2026-05-04 13:50 |
|---|---|
| Airport | Dubai International Airport (OMDB) |
Arrival
| Time | 2026-05-04 14:31 |
|---|---|
| Airport | Muscat International Airport (OOMS) |
| Time | Latitude | Longitude | Altitude | Speed | Heading |
|---|---|---|---|---|---|
| 2026-05-04 12:49 | 25.23202 | 55.39528 | 27 ft | 0 kts | 194° |
| 2026-05-04 12:49 | 25.23201 | 55.39527 | 27 ft | 0 kts | 194° |
| 2026-05-04 13:37 | 25.23206 | 55.39528 | 27 ft | 4 kts | 201° |
| 2026-05-04 13:37 | 25.23213 | 55.39539 | 26 ft | 4 kts | 290° |
| 2026-05-04 13:38 | 25.23203 | 55.39561 | 27 ft | 4 kts | 301° |
| 2026-05-04 13:38 | 25.23190 | 55.39582 | 25 ft | 1 kts | 301° |
| 2026-05-04 13:38 | 25.23194 | 55.39577 | 25 ft | 2 kts | 303° |
| 2026-05-04 13:38 | 25.23205 | 55.39560 | 27 ft | 0 kts | 308° |
| 2026-05-04 13:46 | 25.23210 | 55.39553 | 25 ft | 3 kts | 305° |
| 2026-05-04 13:46 | 25.23246 | 55.39489 | 27 ft | 11 kts | 301° |
| 2026-05-04 13:46 | 25.23315 | 55.39460 | 27 ft | 12 kts | 15° |
| 2026-05-04 13:47 | 25.23390 | 55.39503 | 28 ft | 12 kts | 30° |
| 2026-05-04 13:47 | 25.23462 | 55.39551 | 30 ft | 12 kts | 31° |
| 2026-05-04 13:47 | 25.23535 | 55.39567 | 32 ft | 10 kts | 329° |
| 2026-05-04 13:47 | 25.23572 | 55.39519 | 32 ft | 0 kts | 304° |
| 2026-05-04 13:48 | 25.23573 | 55.39517 | 32 ft | 1 kts | 304° |
| 2026-05-04 13:49 | 25.23656 | 55.39367 | 33 ft | 48 kts | 301° |
| 2026-05-04 13:49 | 25.23851 | 55.39019 | 31 ft | 60 kts | 302° |
| 2026-05-04 13:49 | 25.24127 | 55.38522 | 31 ft | 97 kts | 301° |
| 2026-05-04 13:49 | 25.24578 | 55.37704 | 28 ft | 158 kts | 302° |
| 2026-05-04 13:50 | 25.25249 | 55.36470 | 461 ft | 206 kts | 300° |
| 2026-05-04 13:50 | 25.26022 | 55.34981 | 1213 ft | 242 kts | 300° |
| 2026-05-04 13:50 | 25.27010 | 55.33334 | 2271 ft | 274 kts | 305° |
| 2026-05-04 13:50 | 25.28148 | 55.31585 | 3712 ft | 282 kts | 305° |
| 2026-05-04 13:51 | 25.29223 | 55.29831 | 5552 ft | 271 kts | 296° |
| 2026-05-04 13:51 | 25.29571 | 55.27824 | 7142 ft | 269 kts | 265° |
| 2026-05-04 13:51 | 25.28942 | 55.25882 | 8466 ft | 273 kts | 239° |
| 2026-05-04 13:51 | 25.27889 | 55.24110 | 9690 ft | 278 kts | 237° |
| 2026-05-04 13:52 | 25.25821 | 55.20274 | 11316 ft | 313 kts | 242° |
| 2026-05-04 13:52 | 25.24795 | 55.18050 | 11904 ft | 333 kts | 244° |
| 2026-05-04 13:52 | 25.23450 | 55.15950 | 12781 ft | 341 kts | 222° |
| 2026-05-04 13:53 | 25.21387 | 55.14644 | 13762 ft | 348 kts | 198° |
| 2026-05-04 13:53 | 25.18976 | 55.14386 | 14715 ft | 354 kts | 174° |
| 2026-05-04 13:53 | 25.16633 | 55.15234 | 15634 ft | 360 kts | 150° |
| 2026-05-04 13:54 | 25.13640 | 55.19583 | 17395 ft | 370 kts | 104° |
| 2026-05-04 13:54 | 25.13341 | 55.22417 | 18244 ft | 375 kts | 94° |
| 2026-05-04 13:54 | 25.12348 | 55.28123 | 19830 ft | 385 kts | 108° |
| 2026-05-04 13:55 | 25.11403 | 55.30905 | 20595 ft | 389 kts | 112° |
| 2026-05-04 13:55 | 25.09270 | 55.36459 | 22004 ft | 398 kts | 113° |
| 2026-05-04 13:55 | 25.08172 | 55.39283 | 22681 ft | 402 kts | 114° |
| 2026-05-04 13:56 | 25.07054 | 55.42125 | 23306 ft | 406 kts | 113° |
| 2026-05-04 13:56 | 25.05954 | 55.45013 | 23915 ft | 410 kts | 112° |
| 2026-05-04 13:56 | 25.03717 | 55.50875 | 25022 ft | 420 kts | 113° |
| 2026-05-04 13:57 | 25.02563 | 55.53886 | 25240 ft | 434 kts | 112° |
| 2026-05-04 13:57 | 25.01199 | 55.56918 | 25268 ft | 450 kts | 120° |
| 2026-05-04 13:58 | 24.96104 | 55.66313 | 25265 ft | 500 kts | 121° |
| 2026-05-04 13:58 | 24.92431 | 55.73066 | 25239 ft | 526 kts | 121° |
| 2026-05-04 13:58 | 24.90541 | 55.76539 | 25230 ft | 531 kts | 121° |
| 2026-05-04 13:59 | 24.88634 | 55.80043 | 25226 ft | 534 kts | 121° |
| 2026-05-04 13:59 | 24.86725 | 55.83551 | 25226 ft | 534 kts | 121° |
| 2026-05-04 13:59 | 24.83089 | 55.90235 | 25334 ft | 483 kts | 121° |
| 2026-05-04 14:00 | 24.81406 | 55.93327 | 25583 ft | 458 kts | 121° |
| 2026-05-04 14:00 | 24.78333 | 55.98978 | 26375 ft | 402 kts | 121° |
| 2026-05-04 14:00 | 24.76949 | 56.01524 | 26914 ft | 376 kts | 121° |
| 2026-05-04 14:01 | 24.75619 | 56.03971 | 27525 ft | 371 kts | 121° |
| 2026-05-04 14:01 | 24.74299 | 56.06400 | 28145 ft | 369 kts | 121° |
| 2026-05-04 14:01 | 24.71693 | 56.11195 | 29438 ft | 361 kts | 121° |
| 2026-05-04 14:02 | 24.70407 | 56.13562 | 29656 ft | 359 kts | 121° |
| 2026-05-04 14:02 | 24.69145 | 56.15885 | 29333 ft | 357 kts | 121° |
| 2026-05-04 14:02 | 24.67883 | 56.18206 | 29129 ft | 349 kts | 121° |
| 2026-05-04 14:02 | 24.66511 | 56.20362 | 28953 ft | 340 kts | 128° |
| 2026-05-04 14:03 | 24.65039 | 56.22364 | 28705 ft | 334 kts | 130° |
| 2026-05-04 14:03 | 24.63538 | 56.24295 | 28377 ft | 331 kts | 131° |
| 2026-05-04 14:03 | 24.62025 | 56.26178 | 28035 ft | 327 kts | 132° |
| 2026-05-04 14:03 | 24.60512 | 56.28035 | 27710 ft | 324 kts | 132° |
| 2026-05-04 14:04 | 24.57531 | 56.31688 | 27057 ft | 318 kts | 132° |
| 2026-05-04 14:04 | 24.56068 | 56.33491 | 26728 ft | 315 kts | 132° |
| 2026-05-04 14:04 | 24.54618 | 56.35281 | 26401 ft | 312 kts | 131° |
| 2026-05-04 14:05 | 24.51766 | 56.38812 | 25755 ft | 306 kts | 131° |
| 2026-05-04 14:05 | 24.50356 | 56.40558 | 25426 ft | 304 kts | 131° |
| 2026-05-04 14:05 | 24.48961 | 56.42286 | 25106 ft | 301 kts | 131° |
| 2026-05-04 14:06 | 24.47575 | 56.44002 | 24997 ft | 304 kts | 131° |
| 2026-05-04 14:06 | 24.46126 | 56.45794 | 24993 ft | 323 kts | 131° |
| 2026-05-04 14:06 | 24.44588 | 56.47695 | 24990 ft | 343 kts | 131° |
| 2026-05-04 14:06 | 24.42971 | 56.49693 | 24988 ft | 354 kts | 131° |
| 2026-05-04 14:07 | 24.41327 | 56.51723 | 24993 ft | 357 kts | 131° |
| 2026-05-04 14:07 | 24.39677 | 56.53760 | 24999 ft | 357 kts | 131° |
| 2026-05-04 14:07 | 24.38025 | 56.55800 | 25007 ft | 357 kts | 131° |
| 2026-05-04 14:07 | 24.36375 | 56.57836 | 25002 ft | 357 kts | 131° |
| 2026-05-04 14:08 | 24.34721 | 56.59876 | 25004 ft | 357 kts | 131° |
| 2026-05-04 14:08 | 24.33068 | 56.61914 | 24998 ft | 357 kts | 132° |
| 2026-05-04 14:08 | 24.31417 | 56.63948 | 25001 ft | 357 kts | 132° |
| 2026-05-04 14:08 | 24.29765 | 56.65983 | 25004 ft | 357 kts | 132° |
| 2026-05-04 14:09 | 24.26461 | 56.70050 | 25001 ft | 357 kts | 132° |
| 2026-05-04 14:09 | 24.24807 | 56.72084 | 25001 ft | 357 kts | 132° |
| 2026-05-04 14:10 | 24.21503 | 56.76147 | 24999 ft | 357 kts | 132° |
| 2026-05-04 14:10 | 24.19848 | 56.78179 | 24998 ft | 357 kts | 132° |
| 2026-05-04 14:10 | 24.18196 | 56.80208 | 25000 ft | 357 kts | 132° |
| 2026-05-04 14:10 | 24.16540 | 56.82240 | 25007 ft | 357 kts | 132° |
| 2026-05-04 14:11 | 24.14888 | 56.84268 | 24998 ft | 357 kts | 132° |
| 2026-05-04 14:11 | 24.11581 | 56.88323 | 25001 ft | 357 kts | 132° |
| 2026-05-04 14:11 | 24.09927 | 56.90351 | 25000 ft | 357 kts | 132° |
| 2026-05-04 14:12 | 24.08272 | 56.92377 | 24999 ft | 357 kts | 132° |
| 2026-05-04 14:12 | 24.06618 | 56.94403 | 24997 ft | 357 kts | 132° |
| 2026-05-04 14:12 | 24.03308 | 56.98454 | 24997 ft | 357 kts | 132° |
| 2026-05-04 14:13 | 24.01651 | 57.00479 | 24999 ft | 357 kts | 132° |
| 2026-05-04 14:13 | 23.99991 | 57.02508 | 24774 ft | 359 kts | 132° |
| 2026-05-04 14:13 | 23.98325 | 57.04544 | 24332 ft | 358 kts | 132° |
| 2026-05-04 14:13 | 23.96686 | 57.06546 | 24159 ft | 348 kts | 132° |
| 2026-05-04 14:14 | 23.95095 | 57.08490 | 24009 ft | 338 kts | 132° |
| 2026-05-04 14:14 | 23.92548 | 57.11597 | 23770 ft | 322 kts | 132° |
| 2026-05-04 14:14 | 23.91080 | 57.13389 | 23630 ft | 312 kts | 132° |
| 2026-05-04 14:15 | 23.87834 | 57.17345 | 23286 ft | 290 kts | 132° |
| 2026-05-04 14:15 | 23.85179 | 57.20580 | 22699 ft | 283 kts | 132° |
| 2026-05-04 14:16 | 23.82986 | 57.23249 | 22151 ft | 280 kts | 132° |
| 2026-05-04 14:16 | 23.81692 | 57.24823 | 21822 ft | 278 kts | 132° |
| 2026-05-04 14:17 | 23.79128 | 57.27941 | 21153 ft | 274 kts | 132° |
| 2026-05-04 14:17 | 23.77860 | 57.29482 | 20840 ft | 272 kts | 132° |
| 2026-05-04 14:17 | 23.75348 | 57.32536 | 20192 ft | 269 kts | 132° |
| 2026-05-04 14:18 | 23.74119 | 57.34028 | 19886 ft | 267 kts | 132° |
| 2026-05-04 14:18 | 23.72151 | 57.37362 | 19165 ft | 264 kts | 103° |
| 2026-05-04 14:19 | 23.71506 | 57.41273 | 18537 ft | 260 kts | 99° |
| 2026-05-04 14:19 | 23.71229 | 57.43216 | 18224 ft | 259 kts | 99° |
| 2026-05-04 14:19 | 23.70954 | 57.45150 | 17902 ft | 257 kts | 99° |
| 2026-05-04 14:19 | 23.70679 | 57.47073 | 17596 ft | 255 kts | 99° |
| 2026-05-04 14:20 | 23.70405 | 57.48982 | 17279 ft | 254 kts | 99° |
| 2026-05-04 14:20 | 23.70132 | 57.50877 | 16959 ft | 252 kts | 99° |
| 2026-05-04 14:20 | 23.69861 | 57.52761 | 16675 ft | 251 kts | 99° |
| 2026-05-04 14:21 | 23.69307 | 57.56612 | 15493 ft | 271 kts | 99° |
| 2026-05-04 14:21 | 23.69007 | 57.58708 | 14603 ft | 291 kts | 99° |
| 2026-05-04 14:21 | 23.68684 | 57.60977 | 13578 ft | 313 kts | 99° |
| 2026-05-04 14:21 | 23.68345 | 57.63366 | 12794 ft | 323 kts | 99° |
| 2026-05-04 14:22 | 23.67991 | 57.65793 | 12198 ft | 326 kts | 99° |
| 2026-05-04 14:22 | 23.67627 | 57.68256 | 11441 ft | 332 kts | 99° |
| 2026-05-04 14:22 | 23.67258 | 57.70765 | 10663 ft | 337 kts | 99° |
| 2026-05-04 14:22 | 23.66886 | 57.73305 | 9923 ft | 342 kts | 99° |
| 2026-05-04 14:23 | 23.66134 | 57.78444 | 8406 ft | 337 kts | 99° |
| 2026-05-04 14:23 | 23.65769 | 57.80913 | 7666 ft | 323 kts | 100° |
| 2026-05-04 14:23 | 23.65091 | 57.83154 | 6945 ft | 311 kts | 114° |
| 2026-05-04 14:24 | 23.64177 | 57.85248 | 6201 ft | 301 kts | 115° |
| 2026-05-04 14:24 | 23.63456 | 57.87356 | 5465 ft | 294 kts | 108° |
| 2026-05-04 14:24 | 23.62845 | 57.89442 | 4857 ft | 283 kts | 107° |
| 2026-05-04 14:24 | 23.62271 | 57.91478 | 4159 ft | 278 kts | 107° |
| 2026-05-04 14:25 | 23.61726 | 57.93448 | 3727 ft | 264 kts | 107° |
| 2026-05-04 14:25 | 23.60763 | 57.96974 | 3566 ft | 224 kts | 107° |
| 2026-05-04 14:25 | 23.60338 | 57.98537 | 3582 ft | 207 kts | 107° |
| 2026-05-04 14:26 | 23.59938 | 58.00013 | 3578 ft | 201 kts | 107° |
| 2026-05-04 14:26 | 23.59542 | 58.01475 | 3578 ft | 201 kts | 107° |
| 2026-05-04 14:26 | 23.59146 | 58.02939 | 3572 ft | 201 kts | 106° |
| 2026-05-04 14:26 | 23.58925 | 58.04443 | 3577 ft | 202 kts | 92° |
| 2026-05-04 14:27 | 23.58993 | 58.05969 | 3569 ft | 202 kts | 84° |
| 2026-05-04 14:27 | 23.59126 | 58.07493 | 3398 ft | 202 kts | 84° |
| 2026-05-04 14:27 | 23.59248 | 58.09019 | 3089 ft | 203 kts | 85° |
| 2026-05-04 14:27 | 23.59368 | 58.10551 | 2778 ft | 203 kts | 85° |
| 2026-05-04 14:28 | 23.59491 | 58.12082 | 2504 ft | 202 kts | 85° |
| 2026-05-04 14:28 | 23.59611 | 58.13572 | 2256 ft | 192 kts | 85° |
| 2026-05-04 14:28 | 23.59723 | 58.14972 | 2002 ft | 178 kts | 85° |
| 2026-05-04 14:28 | 23.59827 | 58.16273 | 1771 ft | 168 kts | 85° |
| 2026-05-04 14:29 | 23.60027 | 58.18772 | 1322 ft | 162 kts | 85° |
| 2026-05-04 14:29 | 23.60220 | 58.21184 | 896 ft | 159 kts | 85° |
| 2026-05-04 14:30 | 23.60316 | 58.22376 | 678 ft | 156 kts | 85° |
| 2026-05-04 14:30 | 23.60409 | 58.23544 | 478 ft | 153 kts | 85° |
| 2026-05-04 14:30 | 23.60594 | 58.25847 | 88 ft | 151 kts | 85° |
| 2026-05-04 14:31 | 23.60681 | 58.26933 | 55 ft | 135 kts | 87° |
| 2026-05-04 14:31 | 23.60771 | 58.28069 | 49 ft | 42 kts | 85° |
| 2026-05-04 14:32 | 23.60774 | 58.28345 | 47 ft | 1 kts | 92° |
| 2026-05-04 14:32 | 23.60774 | 58.28367 | 47 ft | 10 kts | 91° |
| 2026-05-04 14:32 | 23.60792 | 58.28536 | 46 ft | 34 kts | 76° |
| 2026-05-04 14:32 | 23.60836 | 58.28731 | 49 ft | 25 kts | 78° |
| 2026-05-04 14:33 | 23.60863 | 58.28919 | 46 ft | 26 kts | 82° |
| 2026-05-04 14:33 | 23.60881 | 58.29124 | 46 ft | 28 kts | 89° |
| 2026-05-04 14:33 | 23.60872 | 58.29335 | 47 ft | 27 kts | 96° |
| 2026-05-04 14:33 | 23.60857 | 58.29501 | 46 ft | 13 kts | 94° |
| 2026-05-04 14:34 | 23.60855 | 58.29529 | 46 ft | 0 kts | 94° |